createdAt,value
2023-05-22T00:00:16.640Z,67.65
2023-05-22T00:03:06.839Z,67.74
2023-05-22T00:05:39.426Z,68.15
2023-05-22T00:08:11.681Z,67.94
2023-05-22T00:10:40.960Z,68.30
2023-05-22T00:13:10.008Z,68.32
2023-05-22T00:15:38.992Z,69.04
2023-05-22T00:18:09.333Z,69.06
2023-05-22T00:20:39.263Z,68.77
2023-05-22T00:23:10.449Z,68.65
2023-05-22T00:25:41.229Z,68.77
2023-05-22T00:28:10.054Z,68.50
2023-05-22T00:30:39.708Z,69.16
2023-05-22T00:33:10.056Z,69.56
2023-05-22T00:35:39.085Z,70.43
2023-05-22T00:38:09.451Z,69.71
2023-05-22T00:40:38.818Z,69.87
2023-05-22T00:43:09.364Z,70.37
2023-05-22T00:45:38.818Z,70.06
2023-05-22T00:48:09.725Z,69.88
2023-05-22T00:50:38.971Z,69.76
2023-05-22T00:53:09.165Z,69.56
2023-05-22T00:55:38.579Z,69.97
2023-05-22T00:58:10.696Z,69.89
2023-05-22T01:00:42.892Z,70.41
2023-05-22T01:03:13.336Z,70.77
2023-05-22T01:05:43.072Z,69.95
2023-05-22T01:08:12.662Z,69.88
2023-05-22T01:10:43.073Z,70.01
2023-05-22T01:13:30.276Z,70.48
2023-05-22T01:16:11.960Z,71.03
2023-05-22T01:18:52.616Z,70.83
2023-05-22T01:21:32.944Z,70.05
2023-05-22T01:25:07.719Z,70.22
2023-05-22T01:28:04.076Z,71.20
2023-05-22T01:31:02.027Z,70.05
2023-05-22T01:33:41.582Z,70.16
2023-05-22T01:36:14.023Z,70.45
2023-05-22T01:38:44.379Z,70.68
2023-05-22T01:41:13.629Z,70.82
2023-05-22T01:43:44.182Z,71.00
2023-05-22T01:46:14.372Z,71.09
2023-05-22T01:48:44.042Z,71.07
2023-05-22T01:51:21.366Z,71.28
2023-05-22T01:54:00.741Z,71.47
2023-05-22T01:56:40.337Z,71.13
2023-05-22T01:59:20.960Z,71.35
2023-05-22T02:01:53.903Z,71.50
2023-05-22T02:04:25.515Z,71.96
2023-05-22T02:06:55.806Z,72.07
2023-05-22T02:09:28.979Z,72.59
2023-05-22T02:11:59.191Z,72.39
2023-05-22T02:14:31.311Z,72.75
2023-05-22T02:17:02.217Z,73.03
2023-05-22T02:19:31.395Z,73.13
2023-05-22T02:22:00.789Z,74.12
2023-05-22T02:24:31.237Z,72.44
2023-05-22T02:26:59.974Z,72.31
2023-05-22T02:29:29.005Z,72.49
2023-05-22T02:31:58.345Z,72.88
2023-05-22T02:34:31.731Z,72.64
2023-05-22T02:37:01.007Z,73.22
2023-05-22T02:39:30.231Z,73.13
2023-05-22T02:41:59.043Z,73.27
2023-05-22T02:44:28.161Z,73.33
2023-05-22T02:46:57.190Z,73.44
2023-05-22T02:49:26.428Z,73.30
2023-05-22T02:51:56.607Z,73.18
2023-05-22T02:54:26.135Z,73.34
2023-05-22T02:56:54.875Z,73.63
2023-05-22T02:59:24.080Z,74.19
2023-05-22T03:01:54.589Z,73.79
2023-05-22T03:04:25.806Z,73.55
2023-05-22T03:06:55.938Z,73.83
2023-05-22T03:09:25.212Z,73.72
2023-05-22T03:11:53.966Z,73.79
2023-05-22T03:14:23.754Z,73.64
2023-05-22T03:16:54.748Z,73.86
2023-05-22T03:19:24.904Z,73.93
2023-05-22T03:21:54.306Z,73.89
2023-05-22T03:24:27.164Z,74.37
2023-05-22T03:26:56.153Z,74.66
2023-05-22T03:29:38.928Z,75.55
2023-05-22T03:32:08.489Z,75.86
2023-05-22T03:34:38.132Z,75.42
2023-05-22T03:37:10.499Z,75.50
2023-05-22T03:39:40.919Z,76.01
2023-05-22T03:42:20.812Z,75.61
2023-05-22T03:44:50.166Z,75.54
2023-05-22T03:47:20.187Z,76.07
2023-05-22T03:49:49.242Z,76.49
2023-05-22T03:52:18.067Z,76.60
2023-05-22T03:54:48.504Z,76.80
2023-05-22T03:57:19.960Z,76.46
2023-05-22T03:59:49.147Z,76.26
2023-05-22T04:02:18.657Z,76.24
2023-05-22T04:04:47.862Z,75.57
2023-05-22T04:07:18.503Z,75.41
2023-05-22T04:09:49.079Z,75.79
2023-05-22T04:12:17.872Z,75.21
2023-05-22T04:14:46.912Z,74.58
2023-05-22T04:17:16.084Z,73.72
2023-05-22T04:19:45.148Z,72.12
2023-05-22T04:22:13.879Z,71.47
2023-05-22T04:24:42.903Z,70.09
2023-05-22T04:27:13.186Z,68.98
2023-05-22T04:29:44.986Z,67.95
2023-05-22T04:32:18.057Z,66.34
2023-05-22T04:34:51.173Z,64.62
2023-05-22T04:37:21.028Z,64.67
2023-05-22T04:39:53.528Z,64.66
2023-05-22T04:42:25.259Z,62.75
2023-05-22T04:44:54.374Z,63.24
2023-05-22T04:47:23.142Z,62.26
2023-05-22T04:49:52.702Z,60.50
2023-05-22T04:52:21.442Z,60.65
2023-05-22T04:54:52.246Z,60.25
2023-05-22T04:57:22.082Z,60.74
2023-05-22T04:59:53.619Z,59.11
2023-05-22T05:02:22.480Z,58.33
2023-05-22T05:04:51.561Z,58.62
2023-05-22T05:07:20.234Z,57.21
2023-05-22T05:09:49.299Z,57.26
2023-05-22T05:12:18.547Z,56.20
2023-05-22T05:14:47.636Z,55.53
2023-05-22T05:17:18.827Z,55.33
2023-05-22T05:19:47.812Z,55.35
2023-05-22T05:22:16.602Z,55.18
2023-05-22T05:24:45.680Z,53.80
2023-05-22T05:27:15.269Z,53.70
2023-05-22T05:29:44.387Z,52.65
2023-05-22T05:32:31.865Z,53.39
2023-05-22T05:35:26.876Z,53.22
2023-05-22T05:38:10.950Z,51.24
2023-05-22T05:40:42.421Z,50.41
2023-05-22T05:43:15.274Z,51.90
2023-05-22T05:45:44.908Z,50.11
2023-05-22T05:48:15.235Z,48.97
2023-05-22T05:50:47.026Z,49.29
2023-05-22T05:53:17.445Z,49.95
2023-05-22T05:55:52.120Z,48.32
2023-05-22T05:58:21.882Z,48.61
2023-05-22T06:01:14.388Z,49.79
2023-05-22T06:03:44.798Z,49.27
2023-05-22T06:06:26.091Z,46.83
2023-05-22T06:09:13.413Z,45.90
2023-05-22T06:12:01.525Z,46.72
2023-05-22T06:14:30.756Z,47.06
2023-05-22T06:17:00.656Z,47.30
2023-05-22T06:19:30.958Z,46.56
2023-05-22T06:22:00.668Z,46.17
2023-05-22T06:24:31.978Z,46.20
2023-05-22T06:27:05.657Z,44.93
2023-05-22T06:29:34.507Z,44.41
2023-05-22T06:32:03.722Z,46.02
2023-05-22T06:34:34.067Z,42.93
2023-05-22T06:37:04.413Z,43.55
2023-05-22T06:39:39.239Z,42.18
2023-05-22T06:42:13.042Z,41.13
2023-05-22T06:45:09.337Z,40.17
2023-05-22T06:47:48.975Z,38.96
2023-05-22T06:50:19.201Z,36.32
2023-05-22T06:52:48.996Z,36.44
2023-05-22T06:55:18.623Z,36.46
2023-05-22T06:58:03.994Z,37.05
2023-05-22T07:00:35.737Z,37.99
2023-05-22T07:03:16.668Z,39.10
2023-05-22T07:06:06.304Z,36.53
2023-05-22T07:08:36.099Z,35.74
2023-05-22T07:11:06.943Z,37.06
2023-05-22T07:13:36.582Z,37.87
2023-05-22T07:16:06.584Z,37.55
2023-05-22T07:18:37.039Z,36.90
2023-05-22T07:21:07.918Z,38.26
2023-05-22T07:23:37.983Z,37.57
2023-05-22T07:26:09.804Z,37.74
2023-05-22T07:28:44.849Z,37.02
2023-05-22T07:31:16.425Z,37.16
2023-05-22T07:33:46.729Z,37.76
2023-05-22T07:36:19.129Z,37.85
2023-05-22T07:38:48.718Z,37.69
2023-05-22T07:41:17.456Z,37.56
2023-05-22T07:43:46.959Z,37.66
2023-05-22T07:46:18.910Z,40.19
2023-05-22T07:49:00.389Z,37.66
2023-05-22T07:51:31.329Z,36.90
2023-05-22T07:54:00.713Z,37.63
2023-05-22T07:56:30.772Z,37.75
2023-05-22T07:59:01.203Z,37.89
2023-05-22T08:01:30.192Z,38.43
2023-05-22T08:03:59.331Z,37.25
2023-05-22T08:06:32.044Z,38.61
2023-05-22T08:09:01.189Z,37.08
2023-05-22T08:11:30.075Z,40.96
2023-05-22T08:13:59.302Z,37.94
2023-05-22T08:16:28.138Z,37.02
2023-05-22T08:18:57.171Z,36.11
2023-05-22T08:21:25.934Z,36.88
2023-05-22T08:23:56.342Z,35.96
2023-05-22T08:26:27.207Z,35.48
2023-05-22T08:28:56.457Z,35.50
2023-05-22T08:31:25.196Z,35.08
2023-05-22T08:33:54.292Z,35.86
2023-05-22T08:36:24.710Z,33.68
2023-05-22T08:38:55.076Z,33.29
2023-05-22T08:41:23.893Z,34.73
2023-05-22T08:43:53.081Z,34.77
2023-05-22T08:46:26.351Z,35.12
2023-05-22T08:48:59.048Z,34.40
2023-05-22T08:51:31.604Z,32.83
2023-05-22T08:54:07.607Z,31.90
2023-05-22T08:56:39.819Z,32.53
2023-05-22T08:59:15.295Z,32.17
2023-05-22T09:01:44.267Z,31.53
2023-05-22T09:04:14.474Z,31.86
2023-05-22T09:06:43.389Z,31.71
2023-05-22T09:09:13.832Z,31.38
2023-05-22T09:11:42.652Z,31.42
2023-05-22T09:14:12.666Z,30.66
2023-05-22T09:16:49.494Z,31.29
2023-05-22T09:19:18.982Z,31.65
2023-05-22T09:21:48.311Z,32.12
2023-05-22T09:24:18.723Z,32.31
2023-05-22T09:26:48.349Z,32.65
2023-05-22T09:29:17.386Z,31.57
2023-05-22T09:31:46.511Z,31.87
2023-05-22T09:34:18.385Z,32.08
2023-05-22T09:36:47.245Z,31.96
2023-05-22T09:39:16.295Z,32.65
2023-05-22T09:41:46.647Z,32.23
2023-05-22T09:44:17.047Z,32.13
2023-05-22T09:46:48.354Z,32.41
2023-05-22T09:49:17.842Z,32.84
2023-05-22T09:51:48.983Z,32.48
2023-05-22T09:54:21.740Z,32.63
2023-05-22T09:56:56.070Z,32.17
2023-05-22T09:59:31.530Z,31.18
2023-05-22T10:02:02.131Z,31.22
2023-05-22T10:04:35.800Z,31.87
2023-05-22T10:07:05.556Z,30.95
2023-05-22T10:09:40.856Z,32.52
2023-05-22T10:12:16.504Z,32.75
2023-05-22T10:14:46.091Z,33.28
2023-05-22T10:17:16.969Z,32.24
2023-05-22T10:19:48.139Z,32.49
2023-05-22T10:22:20.982Z,31.79
2023-05-22T10:24:51.382Z,31.77
2023-05-22T10:27:21.495Z,31.21
2023-05-22T10:29:58.268Z,32.31
2023-05-22T10:32:41.649Z,30.82
2023-05-22T10:35:21.613Z,30.57
2023-05-22T10:37:56.628Z,30.91
2023-05-22T10:40:31.110Z,31.70
2023-05-22T10:43:04.111Z,30.53
2023-05-22T10:45:33.506Z,31.38
2023-05-22T10:48:11.558Z,30.93
2023-05-22T10:50:51.115Z,31.81
2023-05-22T10:53:22.359Z,31.81
2023-05-22T10:55:53.123Z,31.43
2023-05-22T10:58:31.374Z,30.11
2023-05-22T11:01:15.199Z,28.27
2023-05-22T11:03:54.564Z,28.37
2023-05-22T11:06:41.348Z,29.45
2023-05-22T11:09:30.647Z,27.20
2023-05-22T11:12:27.461Z,27.55
2023-05-22T11:15:01.456Z,26.90
2023-05-22T11:17:32.411Z,26.20
2023-05-22T11:20:05.520Z,27.02
2023-05-22T11:22:40.888Z,27.17
2023-05-22T11:25:13.035Z,25.81
2023-05-22T11:27:42.801Z,27.38
2023-05-22T11:30:15.071Z,27.00
2023-05-22T11:32:47.996Z,26.42
2023-05-22T11:35:18.945Z,26.99
2023-05-22T11:37:49.858Z,28.29
2023-05-22T11:40:21.236Z,28.65
2023-05-22T11:42:50.610Z,29.08
2023-05-22T11:45:21.425Z,27.59
2023-05-22T11:47:51.024Z,27.19
2023-05-22T11:50:33.618Z,28.13
2023-05-22T11:53:09.404Z,27.21
2023-05-22T11:55:38.256Z,27.33
2023-05-22T11:58:07.347Z,28.33
2023-05-22T12:00:37.776Z,28.39
2023-05-22T12:03:08.083Z,29.20
2023-05-22T12:05:38.052Z,28.99
2023-05-22T12:08:07.365Z,29.25
2023-05-22T12:10:36.294Z,29.51
2023-05-22T12:13:05.629Z,29.65
2023-05-22T12:15:34.523Z,29.37
2023-05-22T12:18:09.254Z,28.92
2023-05-22T12:20:44.096Z,28.80
2023-05-22T12:23:13.770Z,30.01
2023-05-22T12:25:42.904Z,30.32
2023-05-22T12:28:12.324Z,29.12
2023-05-22T12:30:42.731Z,29.25
2023-05-22T12:33:16.685Z,29.71
2023-05-22T12:35:45.458Z,29.70
2023-05-22T12:38:14.621Z,30.49
2023-05-22T12:40:43.434Z,29.90
2023-05-22T12:43:13.067Z,30.27
2023-05-22T12:45:42.437Z,30.23
2023-05-22T12:48:11.974Z,29.21
2023-05-22T12:50:42.480Z,28.87
2023-05-22T12:53:12.079Z,29.05
2023-05-22T12:55:41.268Z,29.09
2023-05-22T12:58:10.535Z,29.47
2023-05-22T13:00:39.643Z,28.54
2023-05-22T13:03:12.102Z,29.29
2023-05-22T13:05:42.593Z,29.37
2023-05-22T13:08:12.365Z,30.78
2023-05-22T13:10:41.253Z,30.07
2023-05-22T13:13:10.364Z,29.66
2023-05-22T13:15:39.222Z,29.80
2023-05-22T13:18:08.622Z,30.85
2023-05-22T13:20:38.666Z,31.00
2023-05-22T13:23:09.427Z,31.28
2023-05-22T13:25:38.924Z,30.49
2023-05-22T13:28:08.113Z,30.49
2023-05-22T13:30:36.939Z,30.95
2023-05-22T13:33:06.138Z,30.86
2023-05-22T13:35:34.927Z,30.33
2023-05-22T13:38:04.162Z,31.03
2023-05-22T13:40:34.398Z,30.70
2023-05-22T13:43:03.554Z,31.17
2023-05-22T13:45:32.525Z,29.69
2023-05-22T13:48:01.652Z,31.62
2023-05-22T13:50:30.460Z,31.17
2023-05-22T13:52:59.541Z,31.09
2023-05-22T13:55:28.302Z,31.63
2023-05-22T13:57:58.909Z,30.41
2023-05-22T14:00:27.761Z,30.35
2023-05-22T14:02:57.007Z,30.44
2023-05-22T14:05:26.249Z,30.32
2023-05-22T14:07:58.380Z,30.85
2023-05-22T14:10:27.333Z,30.82
2023-05-22T14:12:57.901Z,30.36
2023-05-22T14:15:27.015Z,30.57
2023-05-22T14:17:56.252Z,31.12
2023-05-22T14:20:25.180Z,31.02
2023-05-22T14:22:57.493Z,30.97
2023-05-22T14:25:27.572Z,31.25
2023-05-22T14:27:58.282Z,31.38
2023-05-22T14:30:27.273Z,30.95
2023-05-22T14:32:56.390Z,30.57
2023-05-22T14:35:25.191Z,30.66
2023-05-22T14:37:54.236Z,30.57
2023-05-22T14:40:22.984Z,31.64
2023-05-22T14:42:54.181Z,31.28
2023-05-22T14:45:24.848Z,31.23
2023-05-22T14:47:54.029Z,30.80
2023-05-22T14:50:22.953Z,31.41
2023-05-22T14:52:52.136Z,31.45
2023-05-22T14:55:21.782Z,31.49
2023-05-22T14:57:50.933Z,31.13
2023-05-22T15:00:20.238Z,31.44
2023-05-22T15:02:50.646Z,30.66
2023-05-22T15:05:19.677Z,31.75
2023-05-22T15:07:51.249Z,31.97
2023-05-22T15:10:20.789Z,31.75
2023-05-22T15:12:49.833Z,31.76
2023-05-22T15:15:18.817Z,32.38
2023-05-22T15:17:48.124Z,31.70
2023-05-22T15:20:18.602Z,31.50
2023-05-22T15:22:48.021Z,31.63
2023-05-22T15:25:16.860Z,31.03
2023-05-22T15:27:46.034Z,31.58
2023-05-22T15:30:16.968Z,31.79
2023-05-22T15:32:46.360Z,31.61
2023-05-22T15:35:15.250Z,30.90
2023-05-22T15:37:45.586Z,31.55
2023-05-22T15:40:18.297Z,31.73
2023-05-22T15:42:47.362Z,31.51
2023-05-22T15:45:19.209Z,31.88
2023-05-22T15:47:48.374Z,32.41
2023-05-22T15:50:17.276Z,31.85
2023-05-22T15:52:47.770Z,32.25
2023-05-22T15:55:16.748Z,32.29
2023-05-22T15:57:45.964Z,32.72
2023-05-22T16:00:18.366Z,32.55
2023-05-22T16:02:47.904Z,32.61
2023-05-22T16:05:16.992Z,32.18
2023-05-22T16:07:47.793Z,31.90
2023-05-22T16:10:16.631Z,32.01
2023-05-22T16:12:45.735Z,31.45
2023-05-22T16:15:14.681Z,31.13
2023-05-22T16:17:43.835Z,31.92
2023-05-22T16:20:12.850Z,32.31
2023-05-22T16:25:19.023Z,32.21
2023-05-22T16:27:48.115Z,32.56
2023-05-22T16:30:18.301Z,31.75
2023-05-22T16:32:48.132Z,32.27
2023-05-22T16:35:19.635Z,32.44
2023-05-22T16:37:48.939Z,32.52
2023-05-22T16:40:19.425Z,32.45
2023-05-22T16:42:57.376Z,33.26
2023-05-22T16:45:28.852Z,32.76
2023-05-22T16:47:57.952Z,33.07
2023-05-22T16:50:27.231Z,33.44
2023-05-22T16:52:56.271Z,33.53
2023-05-22T16:55:26.409Z,33.65
2023-05-22T16:57:55.661Z,33.68
2023-05-22T17:00:24.534Z,33.98
2023-05-22T17:02:54.049Z,34.13
2023-05-22T17:05:24.179Z,34.93
2023-05-22T17:07:53.266Z,34.12
2023-05-22T17:10:22.153Z,34.97
2023-05-22T17:12:52.638Z,34.29
2023-05-22T17:15:21.562Z,34.03
2023-05-22T17:17:50.843Z,34.42
2023-05-22T17:20:22.152Z,34.08
2023-05-22T17:22:51.458Z,33.88
2023-05-22T17:25:21.098Z,34.59
2023-05-22T17:27:50.303Z,34.93
2023-05-22T17:30:20.743Z,34.79
2023-05-22T17:32:50.152Z,34.91
2023-05-22T17:35:18.996Z,34.97
2023-05-22T17:37:48.138Z,35.42
2023-05-22T17:40:17.312Z,36.09
2023-05-22T17:42:47.268Z,35.79
2023-05-22T17:45:16.197Z,36.29
2023-05-22T17:47:47.071Z,36.35
2023-05-22T17:50:16.204Z,37.00
2023-05-22T17:52:45.320Z,37.21
2023-05-22T17:55:14.311Z,37.78
2023-05-22T17:57:43.458Z,37.82
2023-05-22T18:00:14.653Z,38.25
2023-05-22T18:02:44.326Z,38.47
2023-05-22T18:05:14.805Z,39.08
2023-05-22T18:07:46.359Z,38.58
2023-05-22T18:10:15.281Z,40.73
2023-05-22T18:12:44.359Z,41.11
2023-05-22T18:15:13.394Z,42.68
2023-05-22T18:17:47.859Z,42.87
2023-05-22T18:20:20.175Z,43.84
2023-05-22T18:22:49.301Z,43.86
2023-05-22T18:25:18.176Z,44.36
2023-05-22T18:27:47.402Z,45.10
2023-05-22T18:30:16.816Z,45.89
2023-05-22T18:32:46.111Z,47.10
2023-05-22T18:35:15.166Z,47.11
2023-05-22T18:37:46.120Z,46.10
2023-05-22T18:40:15.384Z,45.97
2023-05-22T18:42:44.519Z,46.98
2023-05-22T18:45:13.666Z,48.17
2023-05-22T18:47:42.814Z,47.36
2023-05-22T18:50:13.103Z,47.33
2023-05-22T18:52:42.351Z,48.28
2023-05-22T18:55:12.781Z,48.51
2023-05-22T18:57:41.837Z,48.23
2023-05-22T19:00:12.246Z,48.45
2023-05-22T19:02:41.433Z,49.20
2023-05-22T19:05:11.495Z,49.83
2023-05-22T19:07:40.667Z,51.18
2023-05-22T19:10:11.275Z,51.45
2023-05-22T19:12:41.696Z,50.74
2023-05-22T19:15:12.272Z,51.95
2023-05-22T19:17:41.465Z,51.89
2023-05-22T19:20:12.307Z,51.49
2023-05-22T19:22:41.450Z,52.48
2023-05-22T19:25:11.116Z,53.28
2023-05-22T19:27:41.506Z,53.20
2023-05-22T19:30:11.280Z,52.70
2023-05-22T19:32:40.400Z,53.01
2023-05-22T19:35:10.498Z,53.51
2023-05-22T19:37:42.579Z,53.82
2023-05-22T19:40:12.173Z,54.57
2023-05-22T19:42:43.597Z,55.03
2023-05-22T19:45:12.608Z,55.37
2023-05-22T19:47:41.757Z,55.79
2023-05-22T19:50:11.666Z,56.08
2023-05-22T19:52:40.919Z,56.60
2023-05-22T19:55:11.006Z,57.45
2023-05-22T19:57:40.117Z,58.11
2023-05-22T20:00:11.787Z,57.27
2023-05-22T20:02:41.185Z,56.58
2023-05-22T20:05:13.013Z,56.94
2023-05-22T20:07:43.114Z,57.77
2023-05-22T20:10:16.157Z,58.32
2023-05-22T20:12:45.958Z,58.74
2023-05-22T20:15:17.799Z,58.68
2023-05-22T20:17:47.809Z,58.57
2023-05-22T20:20:16.852Z,58.59
2023-05-22T20:22:46.181Z,58.97
2023-05-22T20:25:15.173Z,58.37
2023-05-22T20:27:44.233Z,59.11
2023-05-22T20:30:17.482Z,60.48
2023-05-22T20:32:47.063Z,60.09
2023-05-22T20:35:18.921Z,59.75
2023-05-22T20:37:48.266Z,60.02
2023-05-22T20:40:17.528Z,59.48
2023-05-22T20:42:47.630Z,59.69
2023-05-22T20:45:17.777Z,60.87
2023-05-22T20:47:46.882Z,61.22
2023-05-22T20:50:16.705Z,60.71
2023-05-22T20:52:46.003Z,61.17
2023-05-22T20:55:17.688Z,61.02
2023-05-22T20:57:46.880Z,60.87
2023-05-22T21:00:17.852Z,61.88
2023-05-22T21:02:46.991Z,62.86
2023-05-22T21:05:16.079Z,62.07
2023-05-22T21:07:45.116Z,61.71
2023-05-22T21:10:13.926Z,61.98
2023-05-22T21:12:43.108Z,61.90
2023-05-22T21:15:13.001Z,62.16
2023-05-22T21:17:43.458Z,62.66
2023-05-22T21:20:12.637Z,62.82
2023-05-22T21:22:41.611Z,63.15
2023-05-22T21:25:11.351Z,63.23
2023-05-22T21:27:40.945Z,63.83
2023-05-22T21:30:15.218Z,64.44
2023-05-22T21:32:45.714Z,63.90
2023-05-22T21:35:14.611Z,64.30
2023-05-22T21:37:43.596Z,64.45
2023-05-22T21:40:13.692Z,64.58
2023-05-22T21:42:47.123Z,64.25
2023-05-22T21:45:16.441Z,64.35
2023-05-22T21:47:46.805Z,64.73
2023-05-22T21:50:15.734Z,65.29
2023-05-22T21:52:44.718Z,64.96
2023-05-22T21:55:13.755Z,65.09
2023-05-22T21:57:42.792Z,65.32
2023-05-22T22:00:13.560Z,65.36
2023-05-22T22:02:43.253Z,65.58
2023-05-22T22:05:13.545Z,66.71
2023-05-22T22:07:42.731Z,66.30
2023-05-22T22:10:12.394Z,65.47
2023-05-22T22:12:41.456Z,65.44
2023-05-22T22:15:14.147Z,65.35
2023-05-22T22:17:43.210Z,65.90
2023-05-22T22:20:13.600Z,65.91
2023-05-22T22:22:42.659Z,66.21
2023-05-22T22:25:12.124Z,66.43
2023-05-22T22:27:41.202Z,66.95
2023-05-22T22:30:11.628Z,67.75
2023-05-22T22:32:40.740Z,67.39
2023-05-22T22:35:11.588Z,67.06
2023-05-22T22:37:42.729Z,67.30
2023-05-22T22:40:12.106Z,68.04
2023-05-22T22:42:41.162Z,68.27
2023-05-22T22:45:11.415Z,68.15
2023-05-22T22:47:40.927Z,69.11
2023-05-22T22:50:11.020Z,69.56
2023-05-22T22:52:45.359Z,68.21
2023-05-22T22:55:14.562Z,68.13
2023-05-22T22:57:44.731Z,68.55
2023-05-22T23:00:16.133Z,68.44
2023-05-22T23:02:45.376Z,68.13
2023-05-22T23:05:14.915Z,68.54
2023-05-22T23:07:45.546Z,68.93
2023-05-22T23:10:15.634Z,68.85
2023-05-22T23:12:44.843Z,69.05
2023-05-22T23:15:14.132Z,69.92
2023-05-22T23:17:43.200Z,69.87
2023-05-22T23:20:12.753Z,69.81
2023-05-22T23:22:41.784Z,69.66
2023-05-22T23:25:12.265Z,69.52
2023-05-22T23:27:42.041Z,69.44
2023-05-22T23:30:11.778Z,70.12
2023-05-22T23:32:40.874Z,70.27
2023-05-22T23:35:11.233Z,70.81
2023-05-22T23:37:40.261Z,71.77
2023-05-22T23:40:12.060Z,70.75
2023-05-22T23:42:41.340Z,70.90
2023-05-22T23:45:10.469Z,70.94
2023-05-22T23:47:39.528Z,70.81
2023-05-22T23:50:09.543Z,71.27
2023-05-22T23:52:38.622Z,72.45
2023-05-22T23:55:09.519Z,72.18
2023-05-22T23:57:40.032Z,71.47
